< < Back
Terminal Aerodrome Forecast


Current Version              Previous Versions:   1  2  3  4  5  6  7  8  9  

Terminal Aerodrome Forecast

704
FTUS44 KBMX 160500
TAFBHM
TAF
KBHM 160539Z 1606/1706 03003KT P6SM SKC
     FM161500 11008G14KT P6SM SKC
     FM162200 13005KT P6SM SKC=



Latest METAR

073
SAUS70 KWBC 170700 RRC
MTRBHM
METAR KBHM 170653Z 11008KT 10SM SCT250 12/00 A3028 RMK AO2 SLP252
T01170000


USA.gov is the U.S. government's official web portal to all federal, state and local government web resources and services.